Ana Sayfa
METAR-TAF:

METAR-TAF

Havaalanları :

Pointe-Noire, Kongo

Enlem: 04-49S, Boylam: 011-54E, yükseklik: 17 m

Güncel hava durumu gözlemi

Rapor saat 01:00 UTC de 1 saat ve 7 dakika önce yapıldı.
Rüzgar güney/güneydoğudan 4 kt
Sıcaklık 21°C
Nem 100%
Basınç 1015 hPa
Görüş mesafesi: 7000 m
1000 ft yükseklikte az bulutlu
2300 ft yükseklikte parçalı çok bulutlu

METAR: FCPP 140100Z 16004KT 7000 FEW010 BKN023 21/21 Q1015 NOSIG

Saat: 03:07 (02:07 UTC)

Tahmin

Rapor saat 23:00 UTC de 3 saat ve 7 dakika önce yapıldı.
Ayın 14'si saat 00 UTC'den ayın 14'si saat 24 UTC'ye kadar geçerli Tahmin
Rüzgar güneydan 4 kt
Görüş mesafesi: 8000 m
1600 ft yükseklikte az bulutlu
Olasılık 30%
ayın 14'si saat 04 UTC'den ayın 14'si saat 08 UTC'ye kadar
Görüş mesafesi: 3000 m
Pus,

TAF: FCPP 132300Z 1400/1424 18004KT 8000 FEW016 PROB30 1404/1408 3000 BR

4.000'den fazla havaalanı için hava durumu gözlemleri ve tahminleri (METAR ve TAF raporları).

Kullanılabilir istasyonlar harita üzerinde sarı ve kırmızı noktalarla gösterilir.

İstasyonun adını görmek için fareyi noktanın üzerinde gezdirin.

Sonrasında hava gözlem ve tahminlerini görmek için tıklayın.

Haritayı değiştirmek için: yaklaştırmak için siyah artı işaretli yeşil düğmeye ve uzaklaştırmak için de eksi işaretli düğmeye hızla tıklayın; bitişik haritalar için yeşil okları kullanın.


METAR-TAF: